Time,TemperatureF,DewpointF,PressureIn,WindDirection,WindDirectionDegrees,WindSpeedMPH,WindSpeedGustMPH,Humidity,HourlyPrecipIn,Conditions,Clouds,dailyrainin,SoftwareType,DateUTC
2013-01-18 00:05:00,16.9,11.8,30.38,East,96,2.0,2.0,80,0.00,,,0.00,Wunderground v.1.15,2013-01-18 06:05:00,
2013-01-18 00:10:00,16.9,11.5,30.38,ESE,108,2.0,2.0,79,0.00,,,0.00,Wunderground v.1.15,2013-01-18 06:10:00,
2013-01-18 00:20:00,17.0,11.9,30.37,ESE,122,3.0,3.0,80,0.00,,,0.00,Wunderground v.1.15,2013-01-18 06:20:00,
2013-01-18 00:25:00,17.0,11.9,30.37,East,92,2.0,3.0,80,0.00,,,0.00,Wunderground v.1.15,2013-01-18 06:25:00,
2013-01-18 00:35:00,17.2,12.1,30.37,SE,127,2.0,3.0,80,0.00,,,0.00,Wunderground v.1.15,2013-01-18 06:35:00,
2013-01-18 00:45:00,17.1,12.3,30.36,East,86,3.0,3.0,81,0.00,,,0.00,Wunderground v.1.15,2013-01-18 06:45:00,
2013-01-18 00:50:00,17.2,12.4,30.36,ESE,106,3.0,3.0,81,0.00,,,0.00,Wunderground v.1.15,2013-01-18 06:50:00,
2013-01-18 00:59:00,17.5,12.7,30.35,SE,137,3.0,3.0,81,0.00,,,0.00,Wunderground v.1.15,2013-01-18 06:59:00,
2013-01-18 01:05:00,17.6,13.0,30.34,SSE,151,4.0,4.0,82,0.00,,,0.00,Wunderground v.1.15,2013-01-18 07:05:00,
2013-01-18 01:15:00,17.7,13.4,30.33,SE,127,5.0,5.0,83,0.00,,,0.00,Wunderground v.1.15,2013-01-18 07:15:00,
2013-01-18 01:20:00,17.8,13.5,30.32,SE,130,6.0,6.0,83,0.00,,,0.00,Wunderground v.1.15,2013-01-18 07:20:00,
2013-01-18 01:30:00,18.1,14.1,30.31,SE,131,6.0,6.0,84,0.00,,,0.00,Wunderground v.1.15,2013-01-18 07:30:00,
2013-01-18 01:40:00,18.4,14.1,30.32,ESE,120,5.0,5.0,83,0.00,,,0.00,Wunderground v.1.15,2013-01-18 07:40:00,
2013-01-18 01:50:00,18.6,14.0,30.31,SE,135,6.0,6.0,82,0.00,,,0.00,Wunderground v.1.15,2013-01-18 07:50:00,
2013-01-18 02:00:00,18.8,13.9,30.29,SE,127,6.0,6.0,81,0.00,,,0.00,Wunderground v.1.15,2013-01-18 08:00:00,
2013-01-18 02:05:00,18.9,14.0,30.29,SE,132,6.0,8.0,81,0.00,,,0.00,Wunderground v.1.15,2013-01-18 08:05:00,
2013-01-18 02:15:00,18.9,13.7,30.28,SE,141,7.0,7.0,80,0.00,,,0.00,Wunderground v.1.15,2013-01-18 08:15:00,
2013-01-18 02:25:00,19.1,13.9,30.27,ESE,121,8.0,9.0,80,0.00,,,0.00,Wunderground v.1.15,2013-01-18 08:25:00,
2013-01-18 02:35:00,19.3,13.9,30.26,SE,135,7.0,7.0,79,0.00,,,0.00,Wunderground v.1.15,2013-01-18 08:35:00,
2013-01-18 02:44:00,19.4,14.2,30.25,SE,127,8.0,9.0,80,0.00,,,0.00,Wunderground v.1.15,2013-01-18 08:44:00,
2013-01-18 02:50:00,19.5,14.6,30.24,SE,141,8.0,8.0,81,0.00,,,0.00,Wunderground v.1.15,2013-01-18 08:50:00,
2013-01-18 03:00:00,19.6,15.0,30.22,SE,141,7.0,7.0,82,0.00,,,0.00,Wunderground v.1.15,2013-01-18 09:00:00,
2013-01-18 03:05:00,19.7,15.4,30.22,SE,134,8.0,8.0,83,0.00,,,0.00,Wunderground v.1.15,2013-01-18 09:05:00,
2013-01-18 03:15:00,20.1,15.8,30.23,SE,137,6.0,7.0,83,0.00,,,0.00,Wunderground v.1.15,2013-01-18 09:15:00,
2013-01-18 03:25:00,20.4,15.5,30.24,ESE,112,4.0,5.0,81,0.00,,,0.00,Wunderground v.1.15,2013-01-18 09:25:00,
2013-01-18 03:35:00,20.6,15.7,30.23,ESE,118,4.0,5.0,81,0.00,,,0.00,Wunderground v.1.15,2013-01-18 09:35:00,
2013-01-18 03:40:00,20.8,15.9,30.22,SE,137,3.0,5.0,81,0.00,,,0.00,Wunderground v.1.15,2013-01-18 09:40:00,
2013-01-18 03:50:00,20.9,16.0,30.20,SE,129,5.0,9.0,81,0.00,,,0.00,Wunderground v.1.15,2013-01-18 09:50:00,
2013-01-18 04:00:00,21.2,16.3,30.19,ESE,106,7.0,9.0,81,0.00,,,0.00,Wunderground v.1.15,2013-01-18 10:00:00,
2013-01-18 04:05:00,21.4,16.5,30.18,SSE,149,6.0,9.0,81,0.00,,,0.00,Wunderground v.1.15,2013-01-18 10:05:00,
2013-01-18 04:15:00,21.6,16.7,30.17,SE,124,7.0,7.0,81,0.00,,,0.00,Wunderground v.1.15,2013-01-18 10:15:00,
2013-01-18 04:20:00,21.6,16.7,30.17,ESE,118,7.0,7.0,81,0.00,,,0.00,Wunderground v.1.15,2013-01-18 10:20:00,
2013-01-18 04:30:00,21.8,17.2,30.16,SE,125,7.0,7.0,82,0.00,,,0.00,Wunderground v.1.15,2013-01-18 10:30:00,
2013-01-18 04:40:00,22.0,17.6,30.15,ESE,107,7.0,9.0,83,0.00,,,0.00,Wunderground v.1.15,2013-01-18 10:40:00,
2013-01-18 04:50:00,22.3,18.2,30.14,ESE,122,7.0,7.0,84,0.00,,,0.00,Wunderground v.1.15,2013-01-18 10:50:00,
2013-01-18 04:55:00,22.3,18.2,30.14,SE,133,6.0,7.0,84,0.00,,,0.00,Wunderground v.1.15,2013-01-18 10:55:00,
2013-01-18 05:05:00,22.1,18.0,30.14,SE,131,6.0,9.0,84,0.00,,,0.00,Wunderground v.1.15,2013-01-18 11:05:00,
2013-01-18 05:15:00,22.1,18.3,30.12,SE,126,5.0,7.0,85,0.00,,,0.00,Wunderground v.1.15,2013-01-18 11:15:00,
2013-01-18 05:20:00,22.1,18.3,30.11,ESE,119,5.0,5.0,85,0.00,,,0.00,Wunderground v.1.15,2013-01-18 11:20:00,
2013-01-18 05:30:00,22.2,18.7,30.10,SSE,147,6.0,8.0,86,0.00,,,0.00,Wunderground v.1.15,2013-01-18 11:30:00,
2013-01-18 05:40:00,22.4,18.8,30.09,SE,141,7.0,7.0,86,0.00,,,0.00,Wunderground v.1.15,2013-01-18 11:40:00,
2013-01-18 05:45:00,22.5,19.2,30.08,SE,127,6.0,7.0,87,0.00,,,0.00,Wunderground v.1.15,2013-01-18 11:45:00,
2013-01-18 05:55:00,22.8,19.5,30.08,SE,132,5.0,5.0,87,0.00,,,0.00,Wunderground v.1.15,2013-01-18 11:55:00,
2013-01-18 06:05:00,23.4,20.4,30.06,SSE,152,4.0,5.0,88,0.00,,,0.00,Wunderground v.1.15,2013-01-18 12:05:00,
2013-01-18 06:15:00,23.7,20.7,30.05,SE,141,5.0,7.0,88,0.00,,,0.00,Wunderground v.1.15,2013-01-18 12:15:00,
2013-01-18 06:25:00,24.1,21.3,30.04,SW,224,5.0,8.0,89,0.00,,,0.00,Wunderground v.1.15,2013-01-18 12:25:00,
2013-01-18 06:35:00,24.4,21.6,30.03,ESE,122,4.0,5.0,89,0.00,,,0.00,Wunderground v.1.15,2013-01-18 12:35:00,
2013-01-18 06:44:00,24.9,22.4,30.03,SSE,153,3.0,4.0,90,0.00,,,0.00,Wunderground v.1.15,2013-01-18 12:44:00,
2013-01-18 06:50:00,25.1,22.6,30.03,SE,139,2.0,2.0,90,0.00,,,0.00,Wunderground v.1.15,2013-01-18 12:50:00,
2013-01-18 07:00:00,25.5,23.0,30.02,SE,132,2.0,3.0,90,0.00,,,0.00,Wunderground v.1.15,2013-01-18 13:00:00,
2013-01-18 07:05:00,25.7,23.2,30.02,SE,142,2.0,3.0,90,0.00,,,0.00,Wunderground v.1.15,2013-01-18 13:05:00,
2013-01-18 07:15:00,26.0,23.7,30.01,SE,142,2.0,2.0,91,0.00,,,0.00,Wunderground v.1.15,2013-01-18 13:15:00,
2013-01-18 07:25:00,26.3,24.0,30.01,SSW,198,1.0,3.0,91,0.00,,,0.00,Wunderground v.1.15,2013-01-18 13:25:00,
2013-01-18 07:35:00,26.7,24.4,30.00,South,187,2.0,5.0,91,0.00,,,0.00,Wunderground v.1.15,2013-01-18 13:35:00,
2013-01-18 07:45:00,27.0,24.7,30.00,South,176,3.0,3.0,91,0.00,,,0.00,Wunderground v.1.15,2013-01-18 13:45:00,
2013-01-18 07:55:00,27.1,24.8,29.99,South,177,2.0,8.0,91,0.00,,,0.00,Wunderground v.1.15,2013-01-18 13:55:00,
2013-01-18 08:05:00,27.5,25.2,29.98,South,181,3.0,4.0,91,0.00,,,0.00,Wunderground v.1.15,2013-01-18 14:05:00,
2013-01-18 08:15:00,27.7,25.4,29.97,South,184,4.0,6.0,91,0.00,,,0.00,Wunderground v.1.15,2013-01-18 14:15:00,
2013-01-18 08:25:00,28.0,25.7,29.97,South,185,5.0,7.0,91,0.00,,,0.00,Wunderground v.1.15,2013-01-18 14:25:00,
2013-01-18 08:35:00,28.0,25.4,29.97,South,171,6.0,9.0,90,0.00,,,0.00,Wunderground v.1.15,2013-01-18 14:35:00,
2013-01-18 08:40:00,28.2,25.6,29.96,South,187,5.0,5.0,90,0.00,,,0.00,Wunderground v.1.15,2013-01-18 14:40:00,
2013-01-18 08:50:00,28.3,25.7,29.95,SSE,166,6.0,6.0,90,0.00,,,0.00,Wunderground v.1.15,2013-01-18 14:50:00,
2013-01-18 09:00:00,29.0,26.2,29.95,SSW,196,6.0,7.0,89,0.00,,,0.00,Wunderground v.1.15,2013-01-18 15:00:00,
2013-01-18 09:05:00,29.2,26.4,29.95,SSE,157,6.0,7.0,89,0.00,,,0.00,Wunderground v.1.15,2013-01-18 15:05:00,
2013-01-18 09:15:00,29.3,26.2,29.95,South,180,8.0,8.0,88,0.00,,,0.00,Wunderground v.1.15,2013-01-18 15:15:00,
2013-01-18 09:20:00,29.3,26.2,29.96,South,190,8.0,8.0,88,0.00,,,0.00,Wunderground v.1.15,2013-01-18 15:20:00,
2013-01-18 09:30:00,29.2,26.1,29.96,SSW,204,6.0,7.0,88,0.00,,,0.00,Wunderground v.1.15,2013-01-18 15:30:00,
2013-01-18 09:35:00,29.3,26.2,29.96,SSW,195,5.0,7.0,88,0.00,,,0.00,Wunderground v.1.15,2013-01-18 15:35:00,
2013-01-18 09:45:00,29.4,26.3,29.95,South,190,5.0,7.0,88,0.00,,,0.00,Wunderground v.1.15,2013-01-18 15:45:00,
2013-01-18 09:50:00,29.8,26.4,29.95,South,189,5.0,5.0,87,0.00,,,0.00,Wunderground v.1.15,2013-01-18 15:50:00,
2013-01-18 10:00:00,30.4,27.0,29.95,South,188,5.0,5.0,87,0.00,,,0.00,Wunderground v.1.15,2013-01-18 16:00:00,
2013-01-18 10:05:00,30.6,26.9,29.94,SSW,196,6.0,6.0,86,0.00,,,0.00,Wunderground v.1.15,2013-01-18 16:05:00,
2013-01-18 10:15:00,31.0,27.3,29.94,South,190,6.0,9.0,86,0.00,,,0.00,Wunderground v.1.15,2013-01-18 16:15:00,
2013-01-18 10:25:00,31.5,27.5,29.94,SSW,208,6.0,6.0,85,0.00,,,0.00,Wunderground v.1.15,2013-01-18 16:25:00,
2013-01-18 10:35:00,32.1,28.1,29.94,South,185,6.0,7.0,85,0.00,,,0.00,Wunderground v.1.15,2013-01-18 16:35:00,
2013-01-18 10:45:00,33.0,28.4,29.93,SSW,195,7.0,9.0,83,0.00,,,0.00,Wunderground v.1.15,2013-01-18 16:45:00,
2013-01-18 10:50:00,33.3,28.7,29.93,SSW,212,7.0,7.0,83,0.00,,,0.00,Wunderground v.1.15,2013-01-18 16:50:00,
2013-01-18 11:00:00,33.8,28.9,29.92,SSW,208,8.0,8.0,82,0.00,,,0.00,Wunderground v.1.15,2013-01-18 17:00:00,
2013-01-18 11:05:00,33.9,29.0,29.92,SW,214,8.0,8.0,82,0.00,,,0.00,Wunderground v.1.15,2013-01-18 17:05:00,
2013-01-18 11:15:00,34.3,29.1,29.91,SSW,198,7.0,8.0,81,0.00,,,0.00,Wunderground v.1.15,2013-01-18 17:15:00,
2013-01-18 11:20:00,34.4,29.2,29.91,SW,226,7.0,7.0,81,0.00,,,0.00,Wunderground v.1.15,2013-01-18 17:20:00,
2013-01-18 11:30:00,35.1,29.6,29.91,SW,236,6.0,9.0,80,0.00,,,0.00,Wunderground v.1.15,2013-01-18 17:30:00,
2013-01-18 11:35:00,35.2,29.6,29.90,SSW,209,6.0,9.0,80,0.00,,,0.00,Wunderground v.1.15,2013-01-18 17:35:00,
2013-01-18 11:45:00,35.5,29.6,29.89,SW,216,7.0,9.0,79,0.00,,,0.00,Wunderground v.1.15,2013-01-18 17:45:00,
2013-01-18 11:55:00,35.6,29.7,29.88,SW,219,7.0,9.0,79,0.00,,,0.00,Wunderground v.1.15,2013-01-18 17:55:00,
2013-01-18 12:00:00,35.8,29.9,29.88,SW,215,7.0,7.0,79,0.00,,,0.00,Wunderground v.1.15,2013-01-18 18:00:00,
2013-01-18 12:05:00,35.8,29.9,29.88,SSW,208,7.0,7.0,79,0.00,,,0.00,Wunderground v.1.15,2013-01-18 18:05:00,
2013-01-18 12:15:00,36.1,30.2,29.87,SW,227,6.0,7.0,79,0.00,,,0.00,Wunderground v.1.15,2013-01-18 18:15:00,
2013-01-18 12:25:00,36.2,30.3,29.87,WSW,237,5.0,8.0,79,0.00,,,0.00,Wunderground v.1.15,2013-01-18 18:25:00,
2013-01-18 12:35:00,36.4,30.5,29.86,WSW,247,6.0,6.0,79,0.00,,,0.00,Wunderground v.1.15,2013-01-18 18:35:00,
2013-01-18 12:40:00,36.6,30.4,29.87,SW,220,6.0,7.0,78,0.00,,,0.00,Wunderground v.1.15,2013-01-18 18:40:00,
2013-01-18 12:50:00,36.8,30.6,29.86,WSW,239,7.0,8.0,78,0.00,,,0.00,Wunderground v.1.15,2013-01-18 18:50:00,
2013-01-18 12:59:00,36.7,30.5,29.86,WSW,242,6.0,6.0,78,0.00,,,0.00,Wunderground v.1.15,2013-01-18 18:59:00,
2013-01-18 13:05:00,36.9,30.7,29.85,WSW,248,5.0,6.0,78,0.00,,,0.00,Wunderground v.1.15,2013-01-18 19:05:00,
2013-01-18 13:15:00,36.8,30.6,29.86,WSW,258,6.0,6.0,78,0.00,,,0.00,Wunderground v.1.15,2013-01-18 19:15:00,
2013-01-18 13:20:00,36.8,30.6,29.85,WSW,258,7.0,7.0,78,0.00,,,0.00,Wunderground v.1.15,2013-01-18 19:20:00,
2013-01-18 13:30:00,36.7,30.5,29.85,WSW,249,7.0,7.0,78,0.00,,,0.00,Wunderground v.1.15,2013-01-18 19:30:00,
2013-01-18 13:35:00,36.6,30.7,29.85,WSW,239,7.0,7.0,79,0.00,,,0.00,Wunderground v.1.15,2013-01-18 19:35:00,
2013-01-18 13:45:00,36.7,30.8,29.86,WSW,255,6.0,9.0,79,0.00,,,0.00,Wunderground v.1.15,2013-01-18 19:45:00,
2013-01-18 13:50:00,36.8,30.9,29.86,WSW,241,6.0,6.0,79,0.00,,,0.00,Wunderground v.1.15,2013-01-18 19:50:00,
2013-01-18 14:00:00,37.2,31.0,29.86,WSW,249,4.0,4.0,78,0.00,,,0.00,Wunderground v.1.15,2013-01-18 20:00:00,
2013-01-18 14:05:00,37.3,31.1,29.86,WSW,239,5.0,5.0,78,0.00,,,0.00,Wunderground v.1.15,2013-01-18 20:05:00,
2013-01-18 14:15:00,37.7,31.1,29.87,West,270,7.0,7.0,77,0.00,,,0.00,Wunderground v.1.15,2013-01-18 20:15:00,
2013-01-18 14:20:00,37.4,31.2,29.85,West,267,7.0,7.0,78,0.00,,,0.00,Wunderground v.1.15,2013-01-18 20:20:00,
2013-01-18 14:30:00,37.1,30.9,29.85,WSW,249,6.0,6.0,78,0.00,,,0.00,Wunderground v.1.15,2013-01-18 20:30:00,
2013-01-18 14:40:00,37.0,31.1,29.84,WSW,238,5.0,5.0,79,0.00,,,0.00,Wunderground v.1.15,2013-01-18 20:40:00,
2013-01-18 14:50:00,36.9,31.0,29.85,West,281,6.0,6.0,79,0.00,,,0.00,Wunderground v.1.15,2013-01-18 20:50:00,
2013-01-18 15:00:00,36.9,31.0,29.86,WSW,253,6.0,6.0,79,0.00,,,0.00,Wunderground v.1.15,2013-01-18 21:00:00,
2013-01-18 15:05:00,37.1,31.2,29.86,SW,231,5.0,6.0,79,0.00,,,0.00,Wunderground v.1.15,2013-01-18 21:05:00,
2013-01-18 15:15:00,36.9,30.7,29.86,WNW,291,6.0,7.0,78,0.00,,,0.00,Wunderground v.1.15,2013-01-18 21:15:00,
2013-01-18 15:20:00,36.8,30.9,29.86,West,270,5.0,6.0,79,0.00,,,0.00,Wunderground v.1.15,2013-01-18 21:20:00,
2013-01-18 15:30:00,36.6,30.7,29.86,WSW,258,4.0,5.0,79,0.00,,,0.00,Wunderground v.1.15,2013-01-18 21:30:00,
2013-01-18 15:35:00,36.5,30.6,29.87,WSW,247,5.0,5.0,79,0.00,,,0.00,Wunderground v.1.15,2013-01-18 21:35:00,
2013-01-18 15:45:00,37.0,30.8,29.87,West,264,6.0,6.0,78,0.00,,,0.00,Wunderground v.1.15,2013-01-18 21:45:00,
2013-01-18 15:55:00,37.3,31.1,29.87,WSW,242,7.0,7.0,78,0.00,,,0.00,Wunderground v.1.15,2013-01-18 21:55:00,
2013-01-18 16:00:00,37.3,31.1,29.87,WSW,256,7.0,10.0,78,0.00,,,0.00,Wunderground v.1.15,2013-01-18 22:00:00,
2013-01-18 16:05:00,37.2,31.0,29.87,West,266,7.0,10.0,78,0.00,,,0.00,Wunderground v.1.15,2013-01-18 22:05:00,
2013-01-18 16:14:00,37.1,30.9,29.87,West,260,5.0,8.0,78,0.00,,,0.00,Wunderground v.1.15,2013-01-18 22:14:00,
2013-01-18 16:20:00,36.9,30.7,29.87,WSW,248,5.0,9.0,78,0.00,,,0.00,Wunderground v.1.15,2013-01-18 22:20:00,
2013-01-18 16:30:00,36.4,30.5,29.88,SW,233,6.0,6.0,79,0.00,,,0.00,Wunderground v.1.15,2013-01-18 22:30:00,
2013-01-18 16:40:00,35.9,30.3,29.87,WSW,242,7.0,7.0,80,0.00,,,0.00,Wunderground v.1.15,2013-01-18 22:40:00,
2013-01-18 16:45:00,35.4,30.1,29.87,WSW,245,7.0,7.0,81,0.00,,,0.00,Wunderground v.1.15,2013-01-18 22:45:00,
2013-01-18 16:55:00,34.7,30.1,29.87,SW,231,6.0,6.0,83,0.00,,,0.00,Wunderground v.1.15,2013-01-18 22:55:00,
2013-01-18 17:05:00,34.4,29.8,29.88,WSW,256,6.0,9.0,83,0.00,,,0.00,Wunderground v.1.15,2013-01-18 23:05:00,
2013-01-18 17:15:00,34.1,29.5,29.89,WNW,284,6.0,6.0,83,0.00,,,0.00,Wunderground v.1.15,2013-01-18 23:15:00,
2013-01-18 17:25:00,33.8,29.5,29.89,West,266,5.0,7.0,84,0.00,,,0.00,Wunderground v.1.15,2013-01-18 23:25:00,
2013-01-18 17:30:00,33.6,29.3,29.89,West,259,5.0,6.0,84,0.00,,,0.00,Wunderground v.1.15,2013-01-18 23:30:00,
2013-01-18 17:40:00,33.3,29.0,29.89,WNW,284,5.0,5.0,84,0.00,,,0.00,Wunderground v.1.15,2013-01-18 23:40:00,
2013-01-18 17:49:00,33.0,28.7,29.89,WSW,251,4.0,5.0,84,0.00,,,0.00,Wunderground v.1.15,2013-01-18 23:49:00,
2013-01-18 17:55:00,32.9,28.6,29.90,West,277,4.0,5.0,84,0.00,,,0.00,Wunderground v.1.15,2013-01-18 23:55:00,
2013-01-18 18:00:00,32.7,28.4,29.89,West,272,4.0,4.0,84,0.00,,,0.00,Wunderground v.1.15,2013-01-19 00:00:00,
2013-01-18 18:05:00,32.6,28.3,29.90,West,278,4.0,4.0,84,0.00,,,0.00,Wunderground v.1.15,2013-01-19 00:05:00,
2013-01-18 18:14:00,32.5,28.5,29.90,West,274,4.0,5.0,85,0.00,,,0.00,Wunderground v.1.15,2013-01-19 00:14:00,
2013-01-18 18:20:00,32.5,28.5,29.90,West,278,4.0,5.0,85,0.00,,,0.00,Wunderground v.1.15,2013-01-19 00:20:00,
2013-01-18 18:30:00,32.5,28.5,29.90,West,264,4.0,4.0,85,0.00,,,0.00,Wunderground v.1.15,2013-01-19 00:30:00,
2013-01-18 18:39:00,32.3,28.3,29.90,WSW,256,3.0,3.0,85,0.00,,,0.00,Wunderground v.1.15,2013-01-19 00:39:00,
2013-01-18 18:45:00,32.1,28.1,29.90,WSW,250,3.0,4.0,85,0.00,,,0.00,Wunderground v.1.15,2013-01-19 00:45:00,
2013-01-18 18:55:00,31.6,27.6,29.90,WSW,257,4.0,5.0,85,0.00,,,0.00,Wunderground v.1.15,2013-01-19 00:55:00,
2013-01-18 19:05:00,31.2,27.5,29.91,WSW,243,4.0,6.0,86,0.00,,,0.00,Wunderground v.1.15,2013-01-19 01:05:00,
2013-01-18 19:15:00,31.2,27.8,29.91,West,259,4.0,4.0,87,0.00,,,0.00,Wunderground v.1.15,2013-01-19 01:15:00,
2013-01-18 19:20:00,31.2,27.8,29.91,WSW,238,4.0,6.0,87,0.00,,,0.00,Wunderground v.1.15,2013-01-19 01:20:00,
2013-01-18 19:30:00,31.4,28.0,29.91,WSW,242,5.0,5.0,87,0.00,,,0.00,Wunderground v.1.15,2013-01-19 01:30:00,
2013-01-18 19:40:00,31.6,27.9,29.91,WSW,249,4.0,4.0,86,0.00,,,0.00,Wunderground v.1.15,2013-01-19 01:40:00,
2013-01-18 19:50:00,31.8,28.1,29.91,WNW,283,4.0,4.0,86,0.00,,,0.00,Wunderground v.1.15,2013-01-19 01:50:00,
2013-01-18 19:55:00,31.9,27.9,29.91,West,276,4.0,4.0,85,0.00,,,0.00,Wunderground v.1.15,2013-01-19 01:55:00,
2013-01-18 20:05:00,32.0,28.0,29.91,WSW,245,4.0,5.0,85,0.00,,,0.00,Wunderground v.1.15,2013-01-19 02:05:00,
2013-01-18 20:15:00,32.0,28.0,29.90,West,269,4.0,4.0,85,0.00,,,0.00,Wunderground v.1.15,2013-01-19 02:15:00,
2013-01-18 20:25:00,31.4,27.4,29.91,WSW,244,4.0,5.0,85,0.00,,,0.00,Wunderground v.1.15,2013-01-19 02:25:00,
2013-01-18 20:35:00,30.5,26.8,29.90,SW,235,5.0,5.0,86,0.00,,,0.00,Wunderground v.1.15,2013-01-19 02:35:00,
2013-01-18 20:40:00,30.4,27.0,29.90,WSW,239,5.0,5.0,87,0.00,,,0.00,Wunderground v.1.15,2013-01-19 02:40:00,
2013-01-18 20:50:00,30.2,26.8,29.90,WSW,245,5.0,5.0,87,0.00,,,0.00,Wunderground v.1.15,2013-01-19 02:50:00,
2013-01-18 21:00:00,29.8,26.7,29.90,SW,224,5.0,5.0,88,0.00,,,0.00,Wunderground v.1.15,2013-01-19 03:00:00,
2013-01-18 21:05:00,29.8,26.7,29.90,SW,221,5.0,6.0,88,0.00,,,0.00,Wunderground v.1.15,2013-01-19 03:05:00,
2013-01-18 21:15:00,30.1,27.3,29.90,WSW,239,5.0,5.0,89,0.00,,,0.00,Wunderground v.1.15,2013-01-19 03:15:00,
2013-01-18 21:25:00,30.4,27.3,29.89,SW,227,5.0,5.0,88,0.00,,,0.00,Wunderground v.1.15,2013-01-19 03:25:00,
2013-01-18 21:35:00,30.6,27.5,29.89,SW,224,5.0,5.0,88,0.00,,,0.00,Wunderground v.1.15,2013-01-19 03:35:00,
2013-01-18 21:45:00,30.9,27.5,29.88,SW,227,4.0,5.0,87,0.00,,,0.00,Wunderground v.1.15,2013-01-19 03:45:00,
2013-01-18 21:55:00,31.2,27.8,29.88,SW,232,4.0,4.0,87,0.00,,,0.00,Wunderground v.1.15,2013-01-19 03:55:00,
2013-01-18 22:00:00,31.2,27.5,29.88,SW,217,4.0,5.0,86,0.00,,,0.00,Wunderground v.1.15,2013-01-19 04:00:00,
2013-01-18 22:05:00,31.0,27.3,29.88,SW,229,3.0,5.0,86,0.00,,,0.00,Wunderground v.1.15,2013-01-19 04:05:00,
2013-01-18 22:15:00,30.6,27.2,29.88,WSW,238,2.0,3.0,87,0.00,,,0.00,Wunderground v.1.15,2013-01-19 04:15:00,
2013-01-18 22:20:00,30.6,27.5,29.88,SW,219,2.0,2.0,88,0.00,,,0.00,Wunderground v.1.15,2013-01-19 04:20:00,
2013-01-18 22:30:00,30.5,27.1,29.88,WSW,242,2.0,2.0,87,0.00,,,0.00,Wunderground v.1.15,2013-01-19 04:30:00,
2013-01-18 22:40:00,30.4,27.3,29.88,WSW,242,0.0,0.0,88,0.00,,,0.00,Wunderground v.1.15,2013-01-19 04:40:00,
2013-01-18 22:50:00,30.1,26.7,29.88,West,266,1.0,3.0,87,0.00,,,0.00,Wunderground v.1.15,2013-01-19 04:50:00,
2013-01-18 22:55:00,29.9,26.8,29.88,West,261,1.0,3.0,88,0.00,,,0.00,Wunderground v.1.15,2013-01-19 04:55:00,
2013-01-18 23:00:00,29.7,26.3,29.89,West,280,1.0,1.0,87,0.00,,,0.00,Wunderground v.1.15,2013-01-19 05:00:00,
2013-01-18 23:03:00,29.7,26.3,29.89,West,280,1.0,1.0,87,0.00,,,0.00,Wunderground v.1.15,2013-01-19 05:03:00,
2013-01-18 23:05:00,29.7,26.6,29.89,WSW,244,1.0,5.0,88,0.00,,,0.00,Wunderground v.1.15,2013-01-19 05:05:00,
2013-01-18 23:14:00,29.7,26.9,29.89,WSW,242,3.0,3.0,89,0.00,,,0.00,Wunderground v.1.15,2013-01-19 05:14:00,
2013-01-18 23:20:00,29.6,26.8,29.89,SW,222,2.0,2.0,89,0.00,,,0.00,Wunderground v.1.15,2013-01-19 05:20:00,
2013-01-18 23:30:00,29.3,26.5,29.88,SW,224,1.0,1.0,89,0.00,,,0.00,Wunderground v.1.15,2013-01-19 05:30:00,
2013-01-18 23:40:00,29.3,26.5,29.88,West,274,1.0,1.0,89,0.00,,,0.00,Wunderground v.1.15,2013-01-19 05:40:00,
2013-01-18 23:50:00,29.6,27.0,29.88,West,262,0.0,0.0,90,0.00,,,0.00,Wunderground v.1.15,2013-01-19 05:50:00,